Time;durP1;ratioP1;P1;durP2;ratioP2;P2;SDS_P1;SDS_P2;PMS_P1;PMS_P2;Temp;Humidity;BMP_temperature;BMP_pressure;BME280_temperature;BME280_humidity;BME280_pressure;Samples;Min_cycle;Max_cycle;Signal;HPM_P1;HPM_P2
2023/11/20 00:00:13;;;;;;;4.80;4.50;;;;;;;;;;6278950;28;20311;-70
2023/11/20 00:03:18;;;;;;;4.83;4.63;;;;;;;;;;6280197;28;20304;-69
2023/11/20 00:06:22;;;;;;;5.00;4.60;;;;;;;;;;6247826;28;20303;-70
2023/11/20 00:09:26;;;;;;;4.97;4.57;;;;;;;;;;6246385;28;20241;-69
2023/11/20 00:12:30;;;;;;;5.33;4.90;;;;;;;;;;6280419;28;20318;-69
2023/11/20 00:15:36;;;;;;;5.23;4.50;;;;;;;;;;6280824;28;20291;-69
2023/11/20 00:18:42;;;;;;;4.67;4.20;;;;;;;;;;6280353;28;20322;-69
2023/11/20 00:21:46;;;;;;;4.63;4.23;;;;;;;;;;6280578;28;20312;-70
2023/11/20 00:24:49;;;;;;;5.10;4.80;;;;;;;;;;6280338;28;20310;-70
2023/11/20 00:27:53;;;;;;;4.93;4.63;;;;;;;;;;6256060;28;20312;-71
2023/11/20 00:30:57;;;;;;;4.83;4.33;;;;;;;;;;6275747;28;20577;-68
2023/11/20 00:34:02;;;;;;;5.20;4.70;;;;;;;;;;6280108;28;20499;-70
2023/11/20 00:37:06;;;;;;;5.53;5.03;;;;;;;;;;6295793;28;20260;-73
2023/11/20 00:40:11;;;;;;;5.50;5.10;;;;;;;;;;6280193;28;20394;-72
2023/11/20 00:43:16;;;;;;;7.73;5.20;;;;;;;;;;6262175;28;20302;-70
2023/11/20 00:46:20;;;;;;;6.00;5.33;;;;;;;;;;6280540;28;20301;-70
2023/11/20 00:49:25;;;;;;;5.60;5.10;;;;;;;;;;6284940;28;20223;-71
2023/11/20 00:52:31;;;;;;;5.30;4.90;;;;;;;;;;6280919;28;20311;-71
2023/11/20 00:55:35;;;;;;;5.73;5.20;;;;;;;;;;6279769;28;20305;-71
2023/11/20 00:58:38;;;;;;;5.47;5.07;;;;;;;;;;6278403;28;20320;-69
2023/11/20 01:01:42;;;;;;;6.03;5.50;;;;;;;;;;6261343;28;20308;-70
2023/11/20 01:04:47;;;;;;;5.57;5.10;;;;;;;;;;6253484;28;20310;-70
2023/11/20 01:07:51;;;;;;;5.57;5.10;;;;;;;;;;6255650;28;20305;-70
2023/11/20 01:10:55;;;;;;;6.33;5.63;;;;;;;;;;6253168;28;20785;-70
2023/11/20 01:14:01;;;;;;;5.60;5.20;;;;;;;;;;6251364;28;20297;-70
2023/11/20 01:17:05;;;;;;;5.53;5.20;;;;;;;;;;6255507;28;20321;-69
2023/11/20 01:20:11;;;;;;;5.87;5.37;;;;;;;;;;6254839;28;20309;-69
2023/11/20 01:23:15;;;;;;;6.40;5.80;;;;;;;;;;6255423;28;20300;-70
2023/11/20 01:26:19;;;;;;;7.63;5.30;;;;;;;;;;6250712;28;20658;-71
2023/11/20 01:29:22;;;;;;;6.30;5.23;;;;;;;;;;6254321;28;20234;-72
2023/11/20 01:32:26;;;;;;;6.67;5.33;;;;;;;;;;6270244;28;20301;-69
2023/11/20 01:35:32;;;;;;;6.10;5.50;;;;;;;;;;6269599;28;20549;-71
2023/11/20 01:38:35;;;;;;;6.10;5.33;;;;;;;;;;6255625;28;20298;-70
2023/11/20 01:41:39;;;;;;;6.00;5.50;;;;;;;;;;6254927;28;20312;-73
2023/11/20 01:44:43;;;;;;;6.47;5.20;;;;;;;;;;6255073;28;20310;-69
2023/11/20 01:47:47;;;;;;;5.20;4.80;;;;;;;;;;6253222;28;20288;-69
2023/11/20 01:50:52;;;;;;;5.40;4.93;;;;;;;;;;6252553;28;20358;-70
2023/11/20 01:53:56;;;;;;;4.83;4.53;;;;;;;;;;6254441;28;20300;-72
2023/11/20 01:57:01;;;;;;;5.60;5.20;;;;;;;;;;6270214;28;20297;-69
2023/11/20 02:00:09;;;;;;;5.40;5.00;;;;;;;;;;6251233;28;20523;-71
2023/11/20 02:03:17;;;;;;;5.03;4.70;;;;;;;;;;6256023;28;20310;-69
2023/11/20 02:06:24;;;;;;;5.17;4.73;;;;;;;;;;6278789;28;20301;-69
2023/11/20 02:09:27;;;;;;;5.10;4.70;;;;;;;;;;6279061;28;20316;-70
2023/11/20 02:12:31;;;;;;;6.97;5.17;;;;;;;;;;6261215;28;20300;-71
2023/11/20 02:15:35;;;;;;;4.47;4.27;;;;;;;;;;6279192;28;20309;-69
2023/11/20 02:18:41;;;;;;;4.83;4.57;;;;;;;;;;6262781;28;20325;-71
2023/11/20 02:21:46;;;;;;;4.80;4.50;;;;;;;;;;6260138;28;20324;-69
2023/11/20 02:24:50;;;;;;;4.97;4.63;;;;;;;;;;6278959;28;20308;-70
2023/11/20 02:27:59;;;;;;;4.83;4.47;;;;;;;;;;6279249;28;20512;-70
2023/11/20 02:31:05;;;;;;;4.60;4.30;;;;;;;;;;6293653;28;20302;-69
2023/11/20 02:34:09;;;;;;;5.00;4.67;;;;;;;;;;6278172;28;20452;-71
2023/11/20 02:37:13;;;;;;;5.17;4.87;;;;;;;;;;6296680;28;20312;-69
2023/11/20 02:40:18;;;;;;;4.47;4.27;;;;;;;;;;6281704;28;20590;-71
2023/11/20 02:43:22;;;;;;;4.90;4.60;;;;;;;;;;6298181;28;20293;-69
2023/11/20 02:46:27;;;;;;;4.80;4.50;;;;;;;;;;6263795;28;20299;-69
2023/11/20 02:49:30;;;;;;;5.03;4.53;;;;;;;;;;6282162;28;20252;-72
2023/11/20 02:52:34;;;;;;;4.67;4.30;;;;;;;;;;6264750;28;20354;-76
2023/11/20 02:55:38;;;;;;;4.87;4.57;;;;;;;;;;6297930;28;20301;-70
2023/11/20 02:58:42;;;;;;;4.60;4.40;;;;;;;;;;6263298;28;20305;-71
2023/11/20 03:01:48;;;;;;;4.83;4.53;;;;;;;;;;6282267;28;20321;-69
2023/11/20 03:04:54;;;;;;;5.20;4.77;;;;;;;;;;6255831;28;20295;-70
2023/11/20 03:07:58;;;;;;;5.00;4.60;;;;;;;;;;6256867;28;20298;-69
2023/11/20 03:11:02;;;;;;;4.83;4.50;;;;;;;;;;6245233;28;20303;-70
2023/11/20 03:14:06;;;;;;;5.53;4.40;;;;;;;;;;6233200;28;20296;-71
2023/11/20 03:17:11;;;;;;;4.57;4.33;;;;;;;;;;6247950;28;20313;-71
2023/11/20 03:20:15;;;;;;;4.80;4.40;;;;;;;;;;6231679;28;20294;-71
2023/11/20 03:23:19;;;;;;;4.83;4.53;;;;;;;;;;6231812;28;20580;-69
2023/11/20 03:26:23;;;;;;;4.50;4.20;;;;;;;;;;6231825;28;20306;-70
2023/11/20 03:29:27;;;;;;;4.37;4.17;;;;;;;;;;6231675;28;20236;-69
2023/11/20 03:32:34;;;;;;;4.30;4.00;;;;;;;;;;6233323;28;20310;-69
2023/11/20 03:35:38;;;;;;;4.23;3.97;;;;;;;;;;6230802;28;20305;-70
2023/11/20 03:38:42;;;;;;;4.20;4.00;;;;;;;;;;6231965;28;20380;-70
2023/11/20 03:41:46;;;;;;;4.43;4.03;;;;;;;;;;6231470;28;20457;-70
2023/11/20 03:44:50;;;;;;;4.50;4.30;;;;;;;;;;6231426;28;20715;-71
2023/11/20 03:47:55;;;;;;;4.33;4.13;;;;;;;;;;6231600;28;20311;-70
2023/11/20 03:50:59;;;;;;;4.10;3.90;;;;;;;;;;6230728;28;20394;-73
2023/11/20 03:54:03;;;;;;;4.57;4.37;;;;;;;;;;6232400;28;20283;-69
2023/11/20 03:57:07;;;;;;;4.40;4.10;;;;;;;;;;6231317;28;20307;-69
2023/11/20 04:00:12;;;;;;;4.37;4.17;;;;;;;;;;6229946;28;20296;-71
2023/11/20 04:03:20;;;;;;;4.33;4.03;;;;;;;;;;6243656;28;20309;-70
2023/11/20 04:06:24;;;;;;;3.73;3.63;;;;;;;;;;6280079;28;20290;-69
2023/11/20 04:09:27;;;;;;;4.10;3.90;;;;;;;;;;6280732;28;20345;-70
2023/11/20 04:12:32;;;;;;;3.90;3.70;;;;;;;;;;6295960;28;20289;-69
2023/11/20 04:15:36;;;;;;;4.30;3.93;;;;;;;;;;6296122;28;20293;-68
2023/11/20 04:18:41;;;;;;;4.00;3.80;;;;;;;;;;6280550;28;20316;-70
2023/11/20 04:21:46;;;;;;;3.70;3.60;;;;;;;;;;6262985;28;20300;-67
2023/11/20 04:24:50;;;;;;;3.63;3.43;;;;;;;;;;6280497;28;20301;-70
2023/11/20 04:27:54;;;;;;;4.03;3.83;;;;;;;;;;6281003;28;20301;-70
2023/11/20 04:30:58;;;;;;;4.20;3.90;;;;;;;;;;6280403;28;20329;-70
2023/11/20 04:34:03;;;;;;;3.70;3.50;;;;;;;;;;6280219;28;20301;-72
2023/11/20 04:37:07;;;;;;;3.87;3.67;;;;;;;;;;6280943;28;20300;-70
2023/11/20 04:40:12;;;;;;;4.03;3.73;;;;;;;;;;6262537;28;20294;-71
2023/11/20 04:43:16;;;;;;;3.77;3.50;;;;;;;;;;6255849;28;20338;-70
2023/11/20 04:46:19;;;;;;;3.60;3.40;;;;;;;;;;6256273;28;20297;-69
2023/11/20 04:49:25;;;;;;;3.57;3.13;;;;;;;;;;6255509;28;20302;-70
2023/11/20 04:52:29;;;;;;;3.20;3.10;;;;;;;;;;6274036;28;20323;-70
2023/11/20 04:55:33;;;;;;;2.93;2.83;;;;;;;;;;6279267;28;20297;-71
2023/11/20 04:58:37;;;;;;;3.37;3.17;;;;;;;;;;6278028;28;20294;-72
2023/11/20 05:01:41;;;;;;;3.50;3.30;;;;;;;;;;6279061;28;20467;-70
2023/11/20 05:04:46;;;;;;;2.80;2.70;;;;;;;;;;6269730;28;20314;-70
2023/11/20 05:07:50;;;;;;;2.93;2.83;;;;;;;;;;6279791;28;20294;-70
2023/11/20 05:10:54;;;;;;;2.90;2.80;;;;;;;;;;6279523;28;20320;-69
2023/11/20 05:13:59;;;;;;;2.90;2.80;;;;;;;;;;6279776;28;20423;-70
2023/11/20 05:17:03;;;;;;;3.00;2.90;;;;;;;;;;6279813;28;20321;-68
2023/11/20 05:20:10;;;;;;;3.17;2.97;;;;;;;;;;6280319;28;20501;-70
2023/11/20 05:23:14;;;;;;;3.33;3.13;;;;;;;;;;6279752;28;20369;-70
2023/11/20 05:26:19;;;;;;;3.00;2.90;;;;;;;;;;6279597;28;20325;-69
2023/11/20 05:29:22;;;;;;;2.90;2.70;;;;;;;;;;6279495;28;20811;-71
2023/11/20 05:32:26;;;;;;;2.53;2.43;;;;;;;;;;6279521;28;20473;-71
2023/11/20 05:35:31;;;;;;;3.00;2.90;;;;;;;;;;6279081;28;20286;-69
2023/11/20 05:38:35;;;;;;;3.67;2.63;;;;;;;;;;6254524;28;20352;-72
2023/11/20 05:41:39;;;;;;;2.93;2.83;;;;;;;;;;6263415;28;20491;-70
2023/11/20 05:44:43;;;;;;;2.80;2.70;;;;;;;;;;6279577;28;20294;-70
2023/11/20 05:47:46;;;;;;;2.67;2.57;;;;;;;;;;6279944;28;20315;-71
2023/11/20 05:50:51;;;;;;;2.87;2.67;;;;;;;;;;6279085;28;20309;-71
2023/11/20 05:53:55;;;;;;;2.37;2.37;;;;;;;;;;6280029;28;20464;-70
2023/11/20 05:56:59;;;;;;;2.80;2.70;;;;;;;;;;6283458;28;20305;-70
2023/11/20 06:00:03;;;;;;;3.20;2.90;;;;;;;;;;6277790;28;20302;-73
2023/11/20 06:03:14;;;;;;;2.60;2.60;;;;;;;;;;6274471;28;20340;-70
2023/11/20 06:06:22;;;;;;;2.50;2.50;;;;;;;;;;6277113;28;20289;-70
2023/11/20 06:09:26;;;;;;;2.67;2.57;;;;;;;;;;6278783;28;20580;-70
2023/11/20 06:12:29;;;;;;;2.70;2.60;;;;;;;;;;6282318;28;20301;-68
2023/11/20 06:15:33;;;;;;;4.20;2.60;;;;;;;;;;6283849;28;20602;-69
2023/11/20 06:18:37;;;;;;;2.53;2.43;;;;;;;;;;6283778;28;20310;-70
2023/11/20 06:21:46;;;;;;;2.30;2.30;;;;;;;;;;6284108;28;20322;-68
2023/11/20 06:24:50;;;;;;;3.27;3.07;;;;;;;;;;6284379;28;20325;-69
2023/11/20 06:27:54;;;;;;;2.60;2.50;;;;;;;;;;6275737;28;20305;-72
2023/11/20 06:30:58;;;;;;;2.57;2.57;;;;;;;;;;6258714;28;20391;-70
2023/11/20 06:34:03;;;;;;;2.50;2.50;;;;;;;;;;6283065;28;20317;-69
2023/11/20 06:37:08;;;;;;;2.83;2.63;;;;;;;;;;6283788;28;20295;-70
2023/11/20 06:40:13;;;;;;;2.40;2.40;;;;;;;;;;6282995;28;20315;-71
2023/11/20 06:43:17;;;;;;;2.47;2.27;;;;;;;;;;6283087;28;20295;-69
2023/11/20 06:46:22;;;;;;;2.77;2.67;;;;;;;;;;6264505;28;20497;-70
2023/11/20 06:49:26;;;;;;;2.73;2.33;;;;;;;;;;6282784;28;20290;-70
2023/11/20 06:52:32;;;;;;;2.40;2.30;;;;;;;;;;6283056;28;20306;-69
2023/11/20 06:55:36;;;;;;;2.23;2.13;;;;;;;;;;6282443;28;20306;-70
2023/11/20 06:58:40;;;;;;;2.90;2.70;;;;;;;;;;6280302;28;20314;-68
2023/11/20 07:01:45;;;;;;;2.70;2.50;;;;;;;;;;6282684;28;20287;-70
2023/11/20 07:04:49;;;;;;;2.70;2.57;;;;;;;;;;6282502;28;20327;-69
2023/11/20 07:07:55;;;;;;;2.60;2.53;;;;;;;;;;6282142;28;20322;-68
2023/11/20 07:10:59;;;;;;;2.77;2.60;;;;;;;;;;6282021;28;20525;-70
2023/11/20 07:14:03;;;;;;;2.70;2.60;;;;;;;;;;6281783;28;20231;-69
2023/11/20 07:17:07;;;;;;;2.50;2.50;;;;;;;;;;6282396;28;20302;-69
2023/11/20 07:20:11;;;;;;;2.27;2.20;;;;;;;;;;6282177;28;20362;-69
2023/11/20 07:23:16;;;;;;;2.70;2.60;;;;;;;;;;6282137;28;20283;-70
2023/11/20 07:26:20;;;;;;;2.90;2.80;;;;;;;;;;6281874;28;20382;-69
2023/11/20 07:29:24;;;;;;;3.23;3.00;;;;;;;;;;6282044;28;20366;-70
2023/11/20 07:32:28;;;;;;;2.63;2.50;;;;;;;;;;6282305;28;20234;-70
2023/11/20 07:35:32;;;;;;;3.13;2.97;;;;;;;;;;6281561;28;20291;-70
2023/11/20 07:38:40;;;;;;;4.30;3.17;;;;;;;;;;6263256;28;20471;-71
2023/11/20 07:41:44;;;;;;;2.80;2.70;;;;;;;;;;6281406;28;20307;-69
2023/11/20 07:44:55;;;;;;;3.07;2.87;;;;;;;;;;6296525;28;20295;-70
2023/11/20 07:47:59;;;;;;;3.40;3.20;;;;;;;;;;6281555;28;20290;-69
2023/11/20 07:51:03;;;;;;;2.70;2.60;;;;;;;;;;6262619;28;20349;-70
2023/11/20 07:54:09;;;;;;;3.87;2.57;;;;;;;;;;6263053;28;20260;-69
2023/11/20 07:57:15;;;;;;;3.30;3.10;;;;;;;;;;6281451;28;20298;-69
2023/11/20 08:00:19;;;;;;;3.20;3.10;;;;;;;;;;6278364;28;20349;-69
2023/11/20 08:03:23;;;;;;;2.83;2.53;;;;;;;;;;6277354;28;20405;-69
2023/11/20 08:06:27;;;;;;;3.30;3.10;;;;;;;;;;6281202;28;20291;-71
2023/11/20 08:09:32;;;;;;;2.80;2.70;;;;;;;;;;6280710;28;20309;-71
2023/11/20 08:12:36;;;;;;;2.93;2.77;;;;;;;;;;6280861;28;20449;-70
2023/11/20 08:15:39;;;;;;;2.93;2.73;;;;;;;;;;6280876;28;20303;-69
2023/11/20 08:18:43;;;;;;;3.20;3.00;;;;;;;;;;6280834;28;20302;-70
2023/11/20 08:21:47;;;;;;;3.20;3.10;;;;;;;;;;6281577;28;20226;-70
2023/11/20 08:24:52;;;;;;;3.10;3.00;;;;;;;;;;6280136;28;20310;-69
2023/11/20 08:27:56;;;;;;;2.97;2.77;;;;;;;;;;6280731;28;20301;-71
2023/11/20 08:31:00;;;;;;;3.30;3.10;;;;;;;;;;6280069;28;20297;-70
2023/11/20 08:34:04;;;;;;;3.13;3.00;;;;;;;;;;6279945;28;20302;-69
2023/11/20 08:37:08;;;;;;;3.00;2.90;;;;;;;;;;6281153;28;20398;-70
2023/11/20 08:40:14;;;;;;;3.17;2.97;;;;;;;;;;6276873;28;20315;-70
2023/11/20 08:43:18;;;;;;;3.27;3.10;;;;;;;;;;6280823;28;20573;-70
2023/11/20 08:46:23;;;;;;;3.57;2.97;;;;;;;;;;6279946;28;20365;-71
2023/11/20 08:49:27;;;;;;;3.50;3.20;;;;;;;;;;6280260;28;20303;-70
2023/11/20 08:52:31;;;;;;;3.20;3.03;;;;;;;;;;6280006;28;20317;-71
2023/11/20 08:55:36;;;;;;;3.83;3.40;;;;;;;;;;6279869;28;20306;-70
2023/11/20 08:58:39;;;;;;;3.37;3.27;;;;;;;;;;6278311;28;20231;-69
2023/11/20 09:01:45;;;;;;;6.87;4.20;;;;;;;;;;6280405;28;20322;-70
2023/11/20 09:04:49;;;;;;;5.60;3.30;;;;;;;;;;6279238;28;20326;-69
2023/11/20 09:07:54;;;;;;;5.07;3.70;;;;;;;;;;6280078;28;20290;-69
2023/11/20 09:10:59;;;;;;;4.40;3.30;;;;;;;;;;6279903;28;20291;-69
2023/11/20 09:14:03;;;;;;;3.67;3.37;;;;;;;;;;6260925;28;20395;-69
2023/11/20 09:17:06;;;;;;;3.57;3.33;;;;;;;;;;6279511;28;20310;-69
2023/11/20 09:20:12;;;;;;;3.63;3.40;;;;;;;;;;6279325;28;20301;-69
2023/11/20 09:23:16;;;;;;;4.83;3.43;;;;;;;;;;6280021;28;20303;-69
2023/11/20 09:26:21;;;;;;;3.37;3.17;;;;;;;;;;6280093;28;20338;-70
2023/11/20 09:29:24;;;;;;;5.27;3.90;;;;;;;;;;6279506;28;20326;-70
2023/11/20 09:32:28;;;;;;;5.43;3.50;;;;;;;;;;6279231;28;20297;-69
2023/11/20 09:35:32;;;;;;;4.47;3.57;;;;;;;;;;6279014;28;20349;-69
2023/11/20 09:38:36;;;;;;;4.53;3.70;;;;;;;;;;6278652;28;20298;-69
2023/11/20 09:41:43;;;;;;;3.60;3.40;;;;;;;;;;6279690;28;20294;-70
2023/11/20 09:44:47;;;;;;;3.97;3.50;;;;;;;;;;6278989;28;20557;-70
2023/11/20 09:47:52;;;;;;;4.33;3.50;;;;;;;;;;6295972;28;20262;-69
2023/11/20 09:50:56;;;;;;;4.67;3.67;;;;;;;;;;6283484;28;20388;-69
2023/11/20 09:54:16;;;;;;;3.73;3.53;;;;;;;;;;6283348;28;20287;-73
2023/11/20 09:57:25;;;;;;;3.80;3.60;;;;;;;;;;6284573;28;20306;-68
2023/11/20 10:00:29;;;;;;;4.67;3.80;;;;;;;;;;6282129;28;20299;-70
2023/11/20 10:03:34;;;;;;;3.43;3.30;;;;;;;;;;6283922;28;20592;-72
2023/11/20 10:06:40;;;;;;;3.40;3.30;;;;;;;;;;6284307;28;20286;-72
2023/11/20 10:09:46;;;;;;;3.07;2.97;;;;;;;;;;6284794;28;20294;-71
2023/11/20 10:12:53;;;;;;;3.17;2.87;;;;;;;;;;6269158;28;20315;-69
2023/11/20 10:15:57;;;;;;;3.40;3.20;;;;;;;;;;6282646;28;20394;-69
2023/11/20 10:19:01;;;;;;;3.17;2.90;;;;;;;;;;6283685;28;20347;-69
2023/11/20 10:22:05;;;;;;;3.10;3.00;;;;;;;;;;6283936;28;20297;-70
2023/11/20 10:25:10;;;;;;;3.13;2.90;;;;;;;;;;6283578;28;20279;-70
2023/11/20 10:28:15;;;;;;;3.20;3.10;;;;;;;;;;6283788;28;20299;-71
2023/11/20 10:31:19;;;;;;;4.43;3.90;;;;;;;;;;6282042;28;20290;-69
2023/11/20 10:34:23;;;;;;;3.93;3.70;;;;;;;;;;6281298;28;20306;-72
2023/11/20 10:37:27;;;;;;;6.30;4.03;;;;;;;;;;6284010;28;20349;-70
2023/11/20 10:40:31;;;;;;;3.07;2.97;;;;;;;;;;6282927;28;20299;-70
2023/11/20 10:43:37;;;;;;;3.20;3.00;;;;;;;;;;6283283;28;20291;-71
2023/11/20 10:46:41;;;;;;;3.27;3.10;;;;;;;;;;6282123;28;20310;-72
2023/11/20 10:49:45;;;;;;;3.00;2.90;;;;;;;;;;6283213;28;20366;-71
2023/11/20 10:52:50;;;;;;;3.07;2.97;;;;;;;;;;6281934;28;20303;-74
2023/11/20 10:55:56;;;;;;;3.60;3.30;;;;;;;;;;6283777;28;20239;-69
2023/11/20 10:59:01;;;;;;;3.27;3.07;;;;;;;;;;6281422;28;20322;-70
2023/11/20 11:02:08;;;;;;;3.23;3.00;;;;;;;;;;6284269;28;20286;-70
2023/11/20 11:05:13;;;;;;;4.60;3.47;;;;;;;;;;6257935;28;20311;-69
2023/11/20 11:08:17;;;;;;;3.47;3.13;;;;;;;;;;6269672;28;20310;-71
2023/11/20 11:11:22;;;;;;;2.97;2.80;;;;;;;;;;6282799;28;20298;-69
2023/11/20 11:14:27;;;;;;;2.87;2.70;;;;;;;;;;6282145;28;20449;-70
2023/11/20 11:17:33;;;;;;;3.23;2.73;;;;;;;;;;6282891;28;20298;-70
2023/11/20 11:20:44;;;;;;;2.90;2.80;;;;;;;;;;6282460;28;20302;-69
2023/11/20 11:23:49;;;;;;;3.30;3.10;;;;;;;;;;6296855;28;20474;-70
2023/11/20 11:26:55;;;;;;;2.93;2.83;;;;;;;;;;6283124;28;20497;-70
2023/11/20 11:30:07;;;;;;;4.00;3.20;;;;;;;;;;6281942;28;20303;-70
2023/11/20 11:33:38;;;;;;;3.00;2.90;;;;;;;;;;6282309;28;20294;-69
2023/11/20 11:36:48;;;;;;;3.30;3.20;;;;;;;;;;6280901;28;20498;-71
2023/11/20 11:39:59;;;;;;;3.30;3.20;;;;;;;;;;6281774;28;20595;-70
2023/11/20 11:43:11;;;;;;;3.13;3.00;;;;;;;;;;6282175;28;20478;-70
2023/11/20 11:46:16;;;;;;;3.17;2.97;;;;;;;;;;6280773;28;20326;-70
2023/11/20 11:49:21;;;;;;;3.20;2.97;;;;;;;;;;6296342;28;20461;-72
2023/11/20 11:52:26;;;;;;;2.83;2.73;;;;;;;;;;6297082;28;20458;-71
2023/11/20 11:55:40;;;;;;;3.07;2.97;;;;;;;;;;6281594;28;20302;-70
2023/11/20 11:58:44;;;;;;;3.00;2.90;;;;;;;;;;6279137;28;20579;-69
2023/11/20 12:01:49;;;;;;;3.30;3.00;;;;;;;;;;6281701;28;20295;-70
2023/11/20 12:05:07;;;;;;;3.00;2.80;;;;;;;;;;6280878;28;20354;-70
2023/11/20 12:08:12;;;;;;;2.70;2.50;;;;;;;;;;6281396;28;20283;-70
2023/11/20 12:11:52;;;;;;;3.17;2.97;;;;;;;;;;6280802;28;20626;-69
2023/11/20 12:14:56;;;;;;;2.43;2.43;;;;;;;;;;6277205;28;20246;-69
2023/11/20 12:18:01;;;;;;;2.87;2.67;;;;;;;;;;6280878;28;20318;-72
2023/11/20 12:21:07;;;;;;;2.77;2.67;;;;;;;;;;6280764;28;20365;-69
2023/11/20 12:24:12;;;;;;;2.53;2.43;;;;;;;;;;6280565;28;20307;-69
2023/11/20 12:27:16;;;;;;;3.97;2.83;;;;;;;;;;6262488;28;20282;-72
2023/11/20 12:30:19;;;;;;;2.87;2.77;;;;;;;;;;6280808;28;20321;-69
2023/11/20 12:33:25;;;;;;;2.90;2.80;;;;;;;;;;6280634;28;20286;-69
2023/11/20 12:36:30;;;;;;;2.50;2.50;;;;;;;;;;6279920;28;20322;-69
2023/11/20 12:39:34;;;;;;;4.13;3.80;;;;;;;;;;6280150;28;20290;-70
2023/11/20 12:42:38;;;;;;;2.80;2.60;;;;;;;;;;6280360;28;20607;-70
2023/11/20 12:45:41;;;;;;;2.50;2.40;;;;;;;;;;6279942;28;20347;-69
2023/11/20 12:48:46;;;;;;;2.70;2.60;;;;;;;;;;6279538;28;20298;-71
2023/11/20 12:51:51;;;;;;;2.47;2.37;;;;;;;;;;6295679;28;20454;-70
2023/11/20 12:54:55;;;;;;;2.50;2.40;;;;;;;;;;6279305;28;20474;-70
2023/11/20 12:57:59;;;;;;;2.37;2.27;;;;;;;;;;6278344;28;20290;-72
2023/11/20 13:01:04;;;;;;;2.13;2.00;;;;;;;;;;6279762;28;20306;-70
2023/11/20 13:04:10;;;;;;;2.83;2.70;;;;;;;;;;6279323;28;20304;-70
2023/11/20 13:07:14;;;;;;;2.20;2.10;;;;;;;;;;6280063;28;20294;-73
2023/11/20 13:10:18;;;;;;;2.00;2.00;;;;;;;;;;6279791;28;20283;-72
2023/11/20 13:13:23;;;;;;;2.17;2.10;;;;;;;;;;6277865;28;20301;-69
2023/11/20 13:16:27;;;;;;;2.40;2.30;;;;;;;;;;6278897;28;20303;-69
2023/11/20 13:19:41;;;;;;;2.10;2.10;;;;;;;;;;6279388;28;20585;-69
2023/11/20 13:22:45;;;;;;;2.50;2.40;;;;;;;;;;6293781;28;20299;-70
2023/11/20 13:25:51;;;;;;;2.20;2.10;;;;;;;;;;6279531;28;20318;-69
2023/11/20 13:28:57;;;;;;;2.10;2.00;;;;;;;;;;6278294;28;20294;-69
2023/11/20 13:32:01;;;;;;;2.00;2.00;;;;;;;;;;6279395;28;20274;-68
2023/11/20 13:35:06;;;;;;;2.03;1.83;;;;;;;;;;6278850;28;20322;-69
2023/11/20 13:38:12;;;;;;;2.70;2.20;;;;;;;;;;6279929;28;20295;-70
2023/11/20 13:41:16;;;;;;;3.40;2.70;;;;;;;;;;6279055;28;20299;-72
2023/11/20 13:44:19;;;;;;;2.20;2.10;;;;;;;;;;6278750;28;20294;-70
2023/11/20 13:47:23;;;;;;;2.20;2.10;;;;;;;;;;6279456;28;20591;-69
2023/11/20 13:50:28;;;;;;;1.97;1.97;;;;;;;;;;6278894;28;20298;-72
2023/11/20 13:53:32;;;;;;;2.20;2.10;;;;;;;;;;6278851;28;20313;-70
2023/11/20 13:56:36;;;;;;;2.10;2.00;;;;;;;;;;6279125;28;20370;-69
2023/11/20 13:59:40;;;;;;;2.20;2.20;;;;;;;;;;6276952;28;20290;-71
2023/11/20 14:02:47;;;;;;;1.70;1.70;;;;;;;;;;6278522;28;20298;-68
2023/11/20 14:05:53;;;;;;;1.97;1.87;;;;;;;;;;6278251;28;20291;-69
2023/11/20 14:08:57;;;;;;;2.30;2.20;;;;;;;;;;6278783;28;20311;-71
2023/11/20 14:12:01;;;;;;;17.75;2.75;;;;;;;;;;6279085;28;20290;-70
2023/11/20 14:15:06;;;;;;;2.50;2.40;;;;;;;;;;6278328;28;20314;-69
2023/11/20 14:18:11;;;;;;;2.33;2.23;;;;;;;;;;6278403;28;20258;-70
2023/11/20 14:21:16;;;;;;;2.20;2.10;;;;;;;;;;6276643;28;20599;-69
2023/11/20 14:24:21;;;;;;;2.40;2.30;;;;;;;;;;6277266;28;20306;-69
2023/11/20 14:27:26;;;;;;;2.23;2.13;;;;;;;;;;6278510;28;20299;-69
2023/11/20 14:30:31;;;;;;;2.43;2.03;;;;;;;;;;6269579;28;20298;-69
2023/11/20 14:33:35;;;;;;;2.20;2.20;;;;;;;;;;6296126;28;20457;-71
2023/11/20 14:36:40;;;;;;;2.20;2.20;;;;;;;;;;6280544;28;20303;-71
2023/11/20 14:39:43;;;;;;;2.30;2.20;;;;;;;;;;6273669;28;20294;-69
2023/11/20 14:42:49;;;;;;;2.07;2.00;;;;;;;;;;6282842;28;20302;-69
2023/11/20 14:45:52;;;;;;;2.40;2.30;;;;;;;;;;6282892;28;20522;-69
2023/11/20 14:48:56;;;;;;;2.10;2.00;;;;;;;;;;6282324;28;20302;-70
2023/11/20 14:52:02;;;;;;;1.83;1.83;;;;;;;;;;6282931;28;20457;-69
2023/11/20 14:55:07;;;;;;;2.00;2.00;;;;;;;;;;6282971;28;20298;-69
2023/11/20 14:58:11;;;;;;;2.13;2.13;;;;;;;;;;6282080;28;20250;-70
2023/11/20 15:01:16;;;;;;;2.60;2.40;;;;;;;;;;6282933;28;20286;-71
2023/11/20 15:04:20;;;;;;;2.20;2.10;;;;;;;;;;6282205;28;20306;-71
2023/11/20 15:07:26;;;;;;;2.10;2.00;;;;;;;;;;6282672;28;20295;-70
2023/11/20 15:10:29;;;;;;;2.30;2.10;;;;;;;;;;6282568;28;20290;-71
2023/11/20 15:13:33;;;;;;;2.23;2.13;;;;;;;;;;6282329;28;20484;-71
2023/11/20 15:16:37;;;;;;;3.83;2.20;;;;;;;;;;6281774;28;20322;-70
2023/11/20 15:19:41;;;;;;;2.20;2.10;;;;;;;;;;6282009;28;20298;-70
2023/11/20 15:22:46;;;;;;;2.00;2.00;;;;;;;;;;6282561;28;20567;-70
2023/11/20 15:25:50;;;;;;;2.30;2.20;;;;;;;;;;6272911;28;20299;-70
2023/11/20 15:28:58;;;;;;;2.47;2.37;;;;;;;;;;6281965;28;20310;-70
2023/11/20 15:32:02;;;;;;;2.27;2.17;;;;;;;;;;6282394;28;20303;-70
2023/11/20 15:35:07;;;;;;;3.20;2.20;;;;;;;;;;6281591;28;20298;-70
2023/11/20 15:38:13;;;;;;;2.50;2.50;;;;;;;;;;6282235;28;20314;-70
2023/11/20 15:41:18;;;;;;;2.87;2.77;;;;;;;;;;6281081;28;20290;-70
2023/11/20 15:44:23;;;;;;;3.10;2.90;;;;;;;;;;6277715;28;20290;-71
2023/11/20 15:47:27;;;;;;;2.80;2.70;;;;;;;;;;6282352;28;20708;-70
2023/11/20 15:50:32;;;;;;;2.87;2.73;;;;;;;;;;6281330;28;20473;-70
2023/11/20 15:53:37;;;;;;;2.30;2.30;;;;;;;;;;6263144;28;20622;-70
2023/11/20 15:56:41;;;;;;;2.47;2.40;;;;;;;;;;6282021;28;20366;-70
2023/11/20 15:59:45;;;;;;;2.50;2.40;;;;;;;;;;6277080;28;20314;-72
2023/11/20 16:02:49;;;;;;;3.10;2.90;;;;;;;;;;6277998;28;20305;-69
2023/11/20 16:05:52;;;;;;;2.30;2.20;;;;;;;;;;6289154;28;20283;-69
2023/11/20 16:08:58;;;;;;;2.63;2.47;;;;;;;;;;6277641;28;20563;-71
2023/11/20 16:12:01;;;;;;;2.83;2.60;;;;;;;;;;6281320;28;20295;-72
2023/11/20 16:15:08;;;;;;;2.33;2.10;;;;;;;;;;6281537;28;20318;-70
2023/11/20 16:18:12;;;;;;;2.80;2.70;;;;;;;;;;6281538;28;20322;-70
2023/11/20 16:21:15;;;;;;;2.43;2.23;;;;;;;;;;6280746;28;20295;-69
2023/11/20 16:24:21;;;;;;;2.80;2.70;;;;;;;;;;6280949;28;20298;-70
2023/11/20 16:27:24;;;;;;;2.43;2.23;;;;;;;;;;6281130;28;20314;-69
2023/11/20 16:30:28;;;;;;;2.43;2.33;;;;;;;;;;6280295;28;20349;-69
2023/11/20 16:33:32;;;;;;;2.37;2.20;;;;;;;;;;6281708;28;20302;-70
2023/11/20 16:36:36;;;;;;;3.03;2.30;;;;;;;;;;6279779;28;20386;-70
2023/11/20 16:39:41;;;;;;;2.70;2.50;;;;;;;;;;6280526;28;20237;-68
2023/11/20 16:42:44;;;;;;;3.63;2.30;;;;;;;;;;6280786;28;20291;-69
2023/11/20 16:45:48;;;;;;;2.83;2.33;;;;;;;;;;6280747;28;20302;-68
2023/11/20 16:48:52;;;;;;;2.70;2.50;;;;;;;;;;6281151;28;20307;-70
2023/11/20 16:51:57;;;;;;;2.57;2.40;;;;;;;;;;6281305;28;20310;-71
2023/11/20 16:55:03;;;;;;;2.63;2.50;;;;;;;;;;6280893;28;20294;-70
2023/11/20 16:58:08;;;;;;;3.57;2.80;;;;;;;;;;6275979;28;20310;-69
2023/11/20 17:01:13;;;;;;;2.60;2.50;;;;;;;;;;6279890;28;20602;-72
2023/11/20 17:04:17;;;;;;;2.93;2.77;;;;;;;;;;6279663;28;20494;-70
2023/11/20 17:07:21;;;;;;;3.03;2.83;;;;;;;;;;6279259;28;20298;-69
2023/11/20 17:10:26;;;;;;;2.83;2.73;;;;;;;;;;6286847;28;20306;-70
2023/11/20 17:13:30;;;;;;;2.93;2.73;;;;;;;;;;6280105;28;20314;-68
2023/11/20 17:16:34;;;;;;;2.83;2.63;;;;;;;;;;6280427;28;20290;-69
2023/11/20 17:19:38;;;;;;;3.23;3.03;;;;;;;;;;6279905;28;20460;-69
2023/11/20 17:22:43;;;;;;;3.00;2.80;;;;;;;;;;6280007;28;20602;-68
2023/11/20 17:25:48;;;;;;;2.80;2.70;;;;;;;;;;6279751;28;20320;-68
2023/11/20 17:28:52;;;;;;;3.40;3.20;;;;;;;;;;6280040;28;20298;-71
2023/11/20 17:31:58;;;;;;;2.90;2.80;;;;;;;;;;6279850;28;20315;-68
2023/11/20 17:35:02;;;;;;;3.50;3.30;;;;;;;;;;6279835;28;20338;-70
2023/11/20 17:38:06;;;;;;;2.93;2.83;;;;;;;;;;6279902;28;20302;-71
2023/11/20 17:41:11;;;;;;;2.97;2.87;;;;;;;;;;6279866;28;20534;-71
2023/11/20 17:44:15;;;;;;;3.00;2.90;;;;;;;;;;6279338;28;20305;-69
2023/11/20 17:47:19;;;;;;;2.90;2.80;;;;;;;;;;6279873;28;20313;-69
2023/11/20 17:50:22;;;;;;;2.90;2.80;;;;;;;;;;6278850;28;20313;-69
2023/11/20 17:53:26;;;;;;;2.83;2.63;;;;;;;;;;6278128;28;20741;-69
2023/11/20 17:56:32;;;;;;;3.03;2.93;;;;;;;;;;6279110;28;20298;-69
2023/11/20 17:59:36;;;;;;;3.33;3.07;;;;;;;;;;6277122;28;20247;-69
2023/11/20 18:02:39;;;;;;;3.10;3.00;;;;;;;;;;6279056;28;20300;-69
2023/11/20 18:05:44;;;;;;;3.63;3.00;;;;;;;;;;6278927;28;20562;-67
2023/11/20 18:08:48;;;;;;;3.00;2.90;;;;;;;;;;6283058;28;20298;-69
2023/11/20 18:11:54;;;;;;;3.13;2.90;;;;;;;;;;6284207;28;20317;-69
2023/11/20 18:14:58;;;;;;;3.37;3.17;;;;;;;;;;6283494;28;20309;-69
2023/11/20 18:18:01;;;;;;;2.90;2.80;;;;;;;;;;6283794;28;20298;-68
2023/11/20 18:21:06;;;;;;;3.13;2.93;;;;;;;;;;6284009;28;20306;-68
2023/11/20 18:24:13;;;;;;;3.27;3.00;;;;;;;;;;6282881;28;20376;-70
2023/11/20 18:27:18;;;;;;;2.97;2.60;;;;;;;;;;6282940;28;20314;-69